Time;durP1;ratioP1;P1;durP2;ratioP2;P2;SDS_P1;SDS_P2;PMS_P1;PMS_P2;Temp;Humidity;BMP_temperature;BMP_pressure;BME280_temperature;BME280_humidity;BME280_pressure;Samples;Min_cycle;Max_cycle;Signal;HPM_P1;HPM_P2
2023/06/03 00:01:03;;;;;;;10.27;6.55;;;18.80;91.60;;;;;;5036010;28;20497;-68
2023/06/03 00:03:31;;;;;;;13.30;6.85;;;18.80;92.00;;;;;;5036966;28;20364;-68
2023/06/03 00:05:59;;;;;;;11.43;6.78;;;18.80;91.80;;;;;;5036238;28;20079;-68
2023/06/03 00:08:24;;;;;;;11.52;6.88;;;18.80;91.80;;;;;;5036658;28;20095;-68
2023/06/03 00:10:50;;;;;;;15.32;7.28;;;18.80;91.90;;;;;;5036728;28;20029;-67
2023/06/03 00:13:16;;;;;;;10.90;6.80;;;18.70;91.90;;;;;;5036746;28;20029;-68
2023/06/03 00:15:41;;;;;;;10.73;7.00;;;18.70;92.00;;;;;;5037920;28;20067;-68
2023/06/03 00:18:07;;;;;;;12.40;6.95;;;18.70;92.00;;;;;;5036726;28;20463;-68
2023/06/03 00:20:35;;;;;;;10.73;6.80;;;18.70;92.00;;;;;;5035817;28;20049;-68
2023/06/03 00:23:03;;;;;;;9.02;7.13;;;18.80;92.10;;;;;;5036435;28;20021;-68
2023/06/03 00:25:31;;;;;;;13.93;6.85;;;18.70;92.10;;;;;;5035740;28;20021;-67
2023/06/03 00:27:56;;;;;;;12.63;7.30;;;18.70;92.20;;;;;;5035144;28;20451;-68
2023/06/03 00:30:22;;;;;;;13.90;7.10;;;18.60;92.20;;;;;;5036105;28;20057;-68
2023/06/03 00:32:48;;;;;;;9.40;7.25;;;18.70;92.30;;;;;;5036411;28;20022;-70
2023/06/03 00:35:13;;;;;;;13.32;7.40;;;18.70;92.30;;;;;;5036397;28;20390;-68
2023/06/03 00:37:39;;;;;;;9.75;7.30;;;18.60;92.40;;;;;;5036048;28;20036;-68
2023/06/03 00:40:06;;;;;;;13.02;7.03;;;18.60;92.30;;;;;;5036136;28;20482;-68
2023/06/03 00:42:32;;;;;;;12.52;7.43;;;18.70;92.40;;;;;;5036255;28;20021;-68
2023/06/03 00:44:57;;;;;;;11.80;6.90;;;18.60;92.40;;;;;;5036024;28;20064;-68
2023/06/03 00:47:23;;;;;;;9.02;6.75;;;18.60;92.50;;;;;;5050519;28;20053;-69
2023/06/03 00:49:49;;;;;;;11.55;6.63;;;18.60;92.40;;;;;;5056085;28;20024;-75
2023/06/03 00:52:16;;;;;;;9.95;7.10;;;18.60;92.60;;;;;;5054152;28;20025;-69
2023/06/03 00:54:42;;;;;;;9.18;7.05;;;18.60;92.50;;;;;;5037186;28;20026;-68
2023/06/03 00:57:10;;;;;;;12.50;6.70;;;18.50;92.50;;;;;;5035249;28;20037;-68
2023/06/03 00:59:35;;;;;;;12.38;7.10;;;18.50;92.60;;;;;;5054063;28;20041;-68
2023/06/03 01:02:01;;;;;;;11.00;7.22;;;18.50;92.60;;;;;;5055751;28;20171;-68
2023/06/03 01:04:28;;;;;;;14.82;7.00;;;18.60;92.60;;;;;;5055798;28;20155;-68
2023/06/03 01:07:36;;;;;;;10.32;6.90;;;18.50;92.60;;;;;;5055607;28;20434;-68
2023/06/03 01:10:08;;;;;;;11.07;7.28;;;18.50;92.60;;;;;;5048124;28;20112;-68
2023/06/03 01:12:57;;;;;;;12.43;7.47;;;18.50;92.70;;;;;;5055581;28;20052;-68
2023/06/03 01:15:27;;;;;;;12.90;7.78;;;18.50;92.70;;;;;;5055508;28;20530;-68
2023/06/03 01:17:57;;;;;;;11.00;6.57;;;18.40;92.90;;;;;;5048904;28;20453;-68
2023/06/03 01:20:26;;;;;;;10.25;6.80;;;18.40;92.90;;;;;;5035487;28;20037;-68
2023/06/03 01:23:00;;;;;;;13.10;7.50;;;18.40;92.90;;;;;;5035615;28;20075;-68
2023/06/03 01:25:26;;;;;;;11.20;7.05;;;18.40;92.90;;;;;;5035563;28;20524;-68
2023/06/03 01:27:52;;;;;;;11.70;7.55;;;18.40;92.90;;;;;;5034277;28;20026;-68
2023/06/03 01:30:20;;;;;;;9.52;6.93;;;18.40;93.00;;;;;;5035345;28;20071;-68
2023/06/03 01:32:48;;;;;;;10.15;7.18;;;18.40;93.00;;;;;;5050641;28;20057;-68
2023/06/03 01:35:16;;;;;;;11.10;6.55;;;18.40;93.00;;;;;;5035415;28;20025;-76
2023/06/03 01:37:42;;;;;;;12.52;7.10;;;18.40;93.10;;;;;;5034458;28;20025;-70
2023/06/03 01:40:09;;;;;;;10.43;6.75;;;18.40;93.00;;;;;;5035030;28;20091;-68
2023/06/03 01:42:36;;;;;;;8.98;6.05;;;18.30;93.10;;;;;;5034773;28;20562;-69
2023/06/03 01:45:03;;;;;;;12.23;7.10;;;18.30;93.00;;;;;;5035138;28;20022;-68
2023/06/03 01:47:30;;;;;;;14.60;7.05;;;18.30;93.00;;;;;;5034551;28;20125;-68
2023/06/03 01:49:55;;;;;;;12.10;7.03;;;18.30;93.10;;;;;;5034983;28;20025;-68
2023/06/03 01:52:21;;;;;;;9.75;7.13;;;18.30;93.10;;;;;;5034879;28;20052;-69
2023/06/03 01:54:47;;;;;;;8.15;5.80;;;18.30;93.20;;;;;;5034548;28;20028;-69
2023/06/03 01:57:13;;;;;;;12.80;7.05;;;18.30;93.20;;;;;;5045166;28;20091;-68
2023/06/03 01:59:39;;;;;;;11.63;7.32;;;18.30;93.20;;;;;;5034700;28;20026;-68
2023/06/03 02:02:05;;;;;;;12.70;7.03;;;18.30;93.20;;;;;;5034787;28;20038;-68
2023/06/03 02:04:31;;;;;;;13.52;7.18;;;18.30;93.20;;;;;;5034921;28;20060;-68
2023/06/03 02:07:01;;;;;;;10.23;7.18;;;18.20;93.20;;;;;;5034221;28;20148;-68
2023/06/03 02:09:28;;;;;;;9.70;6.93;;;18.20;93.30;;;;;;5034023;28;20041;-68
2023/06/03 02:11:55;;;;;;;11.75;7.00;;;18.20;93.20;;;;;;5034265;28;20028;-68
2023/06/03 02:14:21;;;;;;;9.38;7.03;;;18.20;93.30;;;;;;5034456;28;20018;-68
2023/06/03 02:16:48;;;;;;;13.02;7.00;;;18.20;93.30;;;;;;5034364;28;20360;-68
2023/06/03 02:19:21;;;;;;;11.20;7.15;;;18.20;93.30;;;;;;5051054;28;20351;-69
2023/06/03 02:21:47;;;;;;;8.55;6.53;;;18.20;93.60;;;;;;5054531;28;20044;-69
2023/06/03 02:24:16;;;;;;;8.40;6.68;;;18.10;93.40;;;;;;5054129;28;20036;-70
2023/06/03 02:26:49;;;;;;;10.38;6.53;;;18.10;93.40;;;;;;5034174;28;20033;-75
2023/06/03 02:29:27;;;;;;;11.88;7.88;;;18.10;93.30;;;;;;5034253;28;20033;-69
2023/06/03 02:31:54;;;;;;;8.43;6.28;;;18.10;93.30;;;;;;5034289;28;20037;-69
2023/06/03 02:34:21;;;;;;;12.18;6.68;;;18.10;93.40;;;;;;5034151;28;20398;-76
2023/06/03 02:36:46;;;;;;;9.95;6.85;;;18.10;93.40;;;;;;5052060;28;20024;-69
2023/06/03 02:39:13;;;;;;;7.82;6.13;;;18.10;93.50;;;;;;5053914;28;20470;-69
2023/06/03 02:41:41;;;;;;;12.20;7.03;;;18.10;93.40;;;;;;5053655;28;20067;-69
2023/06/03 02:44:07;;;;;;;10.25;7.45;;;18.00;93.40;;;;;;5053789;28;20521;-68
2023/06/03 02:46:33;;;;;;;13.20;6.57;;;18.00;93.40;;;;;;5036684;28;20040;-68
2023/06/03 02:49:04;;;;;;;14.13;6.75;;;18.00;93.50;;;;;;5033950;28;20394;-69
2023/06/03 02:51:29;;;;;;;11.25;6.60;;;18.00;93.50;;;;;;5033691;28;20049;-68
2023/06/03 02:53:55;;;;;;;11.60;6.95;;;18.00;93.50;;;;;;5033671;28;20431;-70
2023/06/03 02:56:22;;;;;;;9.90;7.00;;;18.00;93.50;;;;;;5033285;28;20108;-69
2023/06/03 02:58:48;;;;;;;10.25;7.45;;;18.00;93.40;;;;;;5033858;28;20061;-69
2023/06/03 03:01:14;;;;;;;7.95;6.40;;;17.90;93.40;;;;;;5033623;28;20034;-68
2023/06/03 03:03:40;;;;;;;11.20;6.93;;;18.00;93.40;;;;;;5033286;28;20021;-71
2023/06/03 03:06:11;;;;;;;10.00;7.30;;;18.00;93.50;;;;;;5033680;28;20029;-70
2023/06/03 03:08:37;;;;;;;11.15;6.60;;;17.90;93.40;;;;;;5033393;28;20053;-69
2023/06/03 03:11:03;;;;;;;9.65;6.90;;;17.90;93.40;;;;;;5033268;28;20076;-70
2023/06/03 03:13:28;;;;;;;11.07;6.38;;;17.90;93.40;;;;;;5031919;28;20473;-68
2023/06/03 03:15:54;;;;;;;10.52;6.45;;;17.90;93.40;;;;;;5043550;28;20046;-69
2023/06/03 03:18:20;;;;;;;9.05;6.80;;;17.90;93.30;;;;;;5033500;28;20016;-68
2023/06/03 03:20:46;;;;;;;9.50;7.10;;;17.90;93.40;;;;;;5032600;28;20034;-69
2023/06/03 03:23:14;;;;;;;11.60;7.40;;;17.80;93.40;;;;;;5032850;28;20018;-68
2023/06/03 03:25:42;;;;;;;10.52;7.07;;;17.80;93.30;;;;;;5033347;28;20026;-69
2023/06/03 03:28:08;;;;;;;8.98;6.60;;;17.80;93.30;;;;;;5033102;28;20033;-68
2023/06/03 03:30:37;;;;;;;9.75;6.22;;;17.80;93.20;;;;;;5033008;28;20483;-69
2023/06/03 03:33:03;;;;;;;11.25;7.10;;;17.80;93.20;;;;;;5032976;28;20056;-74
2023/06/03 03:35:29;;;;;;;11.95;6.25;;;17.80;93.10;;;;;;5032406;28;20104;-69
2023/06/03 03:38:06;;;;;;;12.57;7.43;;;17.80;93.10;;;;;;5032979;28;20100;-68
2023/06/03 03:40:34;;;;;;;10.82;6.75;;;17.80;93.10;;;;;;5032928;28;20034;-69
2023/06/03 03:43:02;;;;;;;17.25;7.03;;;17.80;93.00;;;;;;5032641;28;20056;-69
2023/06/03 03:45:36;;;;;;;9.85;6.72;;;17.80;92.90;;;;;;5033071;28;20475;-68
2023/06/03 03:48:06;;;;;;;13.70;7.13;;;17.70;92.90;;;;;;5033198;28;20485;-69
2023/06/03 03:50:47;;;;;;;10.70;6.70;;;17.80;92.80;;;;;;5032936;28;20067;-69
2023/06/03 03:53:18;;;;;;;11.07;6.65;;;17.70;92.80;;;;;;5032363;28;20031;-69
2023/06/03 03:55:49;;;;;;;11.45;6.43;;;17.70;92.80;;;;;;5039029;28;20386;-68
2023/06/03 03:58:29;;;;;;;12.15;7.35;;;17.70;92.80;;;;;;5039205;28;20036;-68
2023/06/03 04:01:09;;;;;;;9.60;6.53;;;17.70;92.80;;;;;;5032713;28;20037;-68
2023/06/03 04:03:40;;;;;;;9.98;7.13;;;17.70;92.80;;;;;;5032607;28;20774;-68
2023/06/03 04:06:26;;;;;;;12.77;6.93;;;17.70;92.70;;;;;;5032816;28;20148;-68
2023/06/03 04:08:54;;;;;;;12.15;6.70;;;17.70;93.00;;;;;;5034658;28;20498;-68
2023/06/03 04:11:49;;;;;;;11.48;7.25;;;17.70;92.70;;;;;;5032120;28;20363;-68
2023/06/03 04:14:16;;;;;;;11.00;6.85;;;17.60;92.60;;;;;;5027084;28;20470;-69
2023/06/03 04:16:57;;;;;;;11.52;6.38;;;17.70;92.60;;;;;;5032879;28;20028;-71
2023/06/03 04:19:32;;;;;;;12.10;7.00;;;17.70;92.60;;;;;;5032547;28;20096;-69
2023/06/03 04:22:03;;;;;;;10.07;6.60;;;17.60;92.60;;;;;;5032770;28;20550;-69
2023/06/03 04:24:29;;;;;;;13.38;6.85;;;17.60;92.50;;;;;;5031662;28;20114;-68
2023/06/03 04:26:54;;;;;;;12.63;7.18;;;17.60;92.40;;;;;;5032049;28;20064;-70
2023/06/03 04:29:20;;;;;;;15.30;6.43;;;17.60;92.20;;;;;;5032564;28;20116;-69
2023/06/03 04:31:46;;;;;;;11.73;6.15;;;17.60;92.40;;;;;;5032772;28;20021;-68
2023/06/03 04:34:12;;;;;;;11.85;6.53;;;17.60;92.00;;;;;;5051946;28;20028;-68
2023/06/03 04:36:38;;;;;;;15.40;6.22;;;17.70;92.00;;;;;;5053718;28;20017;-68
2023/06/03 04:39:05;;;;;;;9.77;6.20;;;17.70;91.90;;;;;;5037848;28;20087;-68
2023/06/03 04:41:32;;;;;;;9.45;6.15;;;17.70;91.90;;;;;;5056001;28;20478;-69
2023/06/03 04:44:01;;;;;;;11.27;6.13;;;17.70;91.70;;;;;;5056280;28;20014;-68
2023/06/03 04:46:31;;;;;;;13.73;6.72;;;17.70;91.80;;;;;;5056162;28;20474;-70
2023/06/03 04:48:58;;;;;;;11.73;6.32;;;17.60;91.70;;;;;;5039509;28;20025;-69
2023/06/03 04:51:33;;;;;;;10.88;6.65;;;17.70;91.70;;;;;;5050204;28;20056;-69
2023/06/03 04:54:00;;;;;;;12.73;6.03;;;17.70;91.60;;;;;;5036011;28;20493;-68
2023/06/03 04:56:32;;;;;;;8.95;6.28;;;17.70;91.50;;;;;;5036024;28;20022;-68
2023/06/03 04:59:03;;;;;;;11.00;6.68;;;17.60;91.50;;;;;;5035357;28;20029;-69
2023/06/03 05:01:31;;;;;;;13.65;6.13;;;17.70;91.60;;;;;;5035600;28;20033;-68
2023/06/03 05:03:57;;;;;;;12.70;6.40;;;17.70;91.50;;;;;;5036062;28;20084;-71
2023/06/03 05:06:23;;;;;;;14.80;6.75;;;17.70;91.40;;;;;;5033681;28;20422;-69
2023/06/03 05:08:50;;;;;;;9.38;5.97;;;17.60;91.40;;;;;;5040929;28;20121;-69
2023/06/03 05:11:17;;;;;;;9.63;6.43;;;17.70;91.40;;;;;;5035655;28;20030;-68
2023/06/03 05:13:42;;;;;;;9.73;5.82;;;17.70;91.40;;;;;;5035809;28;20020;-68
2023/06/03 05:16:08;;;;;;;12.80;7.05;;;17.70;91.40;;;;;;5035416;28;20034;-68
2023/06/03 05:18:35;;;;;;;9.70;5.80;;;17.70;91.30;;;;;;5049442;28;20099;-68
2023/06/03 05:21:02;;;;;;;11.57;6.85;;;17.70;91.40;;;;;;5055141;28;20121;-68
2023/06/03 05:23:27;;;;;;;10.88;6.55;;;17.70;91.30;;;;;;5055681;28;20021;-68
2023/06/03 05:25:53;;;;;;;12.13;6.45;;;17.70;91.20;;;;;;5055359;28;20040;-68
2023/06/03 05:28:18;;;;;;;11.23;6.28;;;17.70;91.30;;;;;;5041776;28;20475;-68
2023/06/03 05:30:44;;;;;;;10.90;6.35;;;17.70;91.20;;;;;;5037247;28;20033;-68
2023/06/03 05:33:22;;;;;;;10.57;6.63;;;17.80;91.30;;;;;;5040219;28;20501;-68
2023/06/03 05:35:47;;;;;;;14.38;6.82;;;17.70;91.20;;;;;;5040434;28;20379;-69
2023/06/03 05:38:13;;;;;;;10.52;5.97;;;17.80;91.40;;;;;;5035113;28;20040;-69
2023/06/03 05:40:39;;;;;;;12.82;6.22;;;17.90;91.40;;;;;;5035062;28;20037;-68
2023/06/03 05:43:04;;;;;;;12.65;6.45;;;17.90;91.50;;;;;;5034994;28;20029;-68
2023/06/03 05:45:30;;;;;;;10.90;7.20;;;18.00;91.30;;;;;;5034238;28;20022;-69
2023/06/03 05:47:55;;;;;;;11.07;5.97;;;18.10;91.00;;;;;;5035168;28;20032;-69
2023/06/03 05:50:21;;;;;;;10.18;6.03;;;18.20;90.50;;;;;;5033981;28;20052;-68
2023/06/03 05:52:47;;;;;;;13.73;6.45;;;18.30;90.40;;;;;;5035003;28;20061;-68
2023/06/03 05:55:12;;;;;;;8.32;5.78;;;18.40;90.20;;;;;;5035002;28;20029;-68
2023/06/03 05:57:40;;;;;;;9.20;5.85;;;18.50;89.70;;;;;;5035154;28;20017;-69
2023/06/03 06:00:06;;;;;;;9.63;5.45;;;18.60;89.30;;;;;;5034328;28;20048;-69
2023/06/03 06:02:32;;;;;;;11.95;6.43;;;18.70;88.90;;;;;;5034206;28;20474;-70
2023/06/03 06:04:57;;;;;;;7.75;5.68;;;18.40;88.00;;;;;;5034560;28;20100;-71
2023/06/03 06:07:23;;;;;;;14.20;5.80;;;18.00;89.40;;;;;;5034705;28;20040;-71
2023/06/03 06:09:49;;;;;;;8.68;5.55;;;17.70;89.80;;;;;;5034900;28;20485;-71
2023/06/03 06:12:14;;;;;;;7.65;5.03;;;17.70;90.20;;;;;;5035948;28;20032;-70
2023/06/03 06:14:40;;;;;;;12.75;6.43;;;17.70;90.40;;;;;;5036831;28;20494;-70
2023/06/03 06:17:06;;;;;;;9.13;5.50;;;17.70;90.20;;;;;;5044123;28;20027;-70
2023/06/03 06:19:35;;;;;;;10.15;5.20;;;17.90;90.00;;;;;;5045878;28;20025;-70
2023/06/03 06:22:01;;;;;;;9.55;5.57;;;18.00;90.00;;;;;;5033946;28;20494;-70
2023/06/03 06:24:26;;;;;;;10.90;5.60;;;17.90;89.20;;;;;;5034202;28;20075;-71
2023/06/03 06:26:52;;;;;;;8.98;5.63;;;18.00;89.70;;;;;;5037600;28;20028;-70
2023/06/03 06:29:18;;;;;;;16.98;5.00;;;18.00;89.00;;;;;;5053716;28;20083;-73
2023/06/03 06:31:44;;;;;;;14.55;5.80;;;18.20;90.20;;;;;;5044149;28;20026;-74
2023/06/03 06:34:10;;;;;;;9.68;4.35;;;18.50;88.60;;;;;;5031233;28;20534;-74
2023/06/03 06:36:42;;;;;;;10.90;4.68;;;18.80;87.80;;;;;;5032315;28;20116;-74
2023/06/03 06:39:20;;;;;;;6.80;4.15;;;19.00;85.80;;;;;;5043134;28;20025;-75
2023/06/03 06:41:45;;;;;;;7.18;4.10;;;19.20;85.10;;;;;;5048914;28;20045;-74
2023/06/03 06:44:11;;;;;;;9.77;4.50;;;19.30;84.70;;;;;;5045606;28;20024;-74
2023/06/03 06:46:37;;;;;;;7.65;4.03;;;19.40;84.70;;;;;;5049248;28;20037;-74
2023/06/03 06:49:03;;;;;;;7.50;3.90;;;19.50;84.10;;;;;;5035908;28;20025;-74
2023/06/03 06:51:29;;;;;;;7.40;3.75;;;19.60;84.00;;;;;;5041838;28;20108;-74
2023/06/03 06:53:59;;;;;;;8.57;4.07;;;19.70;83.00;;;;;;5032204;28;20017;-73
2023/06/03 06:56:25;;;;;;;7.10;3.47;;;19.80;83.30;;;;;;5043583;28;20517;-73
2023/06/03 06:58:51;;;;;;;8.05;3.50;;;19.80;83.20;;;;;;5034572;28;20021;-73
2023/06/03 07:01:16;;;;;;;9.35;3.72;;;20.00;81.70;;;;;;5040531;28;20121;-74
2023/06/03 07:03:42;;;;;;;6.70;3.40;;;20.10;81.50;;;;;;5041665;28;20022;-73
2023/06/03 07:06:08;;;;;;;11.80;3.97;;;20.10;80.90;;;;;;5036017;28;20383;-73
2023/06/03 07:08:33;;;;;;;8.70;3.55;;;20.20;81.20;;;;;;5032970;28;20029;-73
2023/06/03 07:11:03;;;;;;;7.25;3.17;;;20.30;81.60;;;;;;5032351;28;20036;-73
2023/06/03 07:13:29;;;;;;;9.32;3.75;;;20.40;80.60;;;;;;5049422;28;20047;-74
2023/06/03 07:15:55;;;;;;;7.30;3.05;;;20.40;81.10;;;;;;5033625;28;20025;-73
2023/06/03 07:18:21;;;;;;;6.53;3.47;;;20.40;81.00;;;;;;5034241;28;20060;-73
2023/06/03 07:20:48;;;;;;;9.90;3.25;;;20.50;81.00;;;;;;5032495;28;20091;-73
2023/06/03 07:23:25;;;;;;;4.90;2.85;;;20.50;80.50;;;;;;5041759;28;20033;-73
2023/06/03 07:25:53;;;;;;;7.15;3.55;;;20.70;79.00;;;;;;5032529;28;20032;-73
2023/06/03 07:28:27;;;;;;;8.77;3.30;;;20.70;79.80;;;;;;5033083;28;20128;-74
2023/06/03 07:30:53;;;;;;;5.85;3.20;;;20.70;78.80;;;;;;5045140;28;20544;-73
2023/06/03 07:33:28;;;;;;;7.05;3.13;;;20.80;79.10;;;;;;5033134;28;20022;-76
2023/06/03 07:35:55;;;;;;;6.78;2.80;;;20.90;78.70;;;;;;5033218;28;20036;-74
2023/06/03 07:38:36;;;;;;;7.38;2.88;;;21.00;77.60;;;;;;5043765;28;20017;-73
2023/06/03 07:41:02;;;;;;;8.07;2.90;;;21.10;77.40;;;;;;5056227;28;20038;-73
2023/06/03 07:43:28;;;;;;;5.25;2.60;;;21.00;78.30;;;;;;5033013;28;20390;-74
2023/06/03 07:45:54;;;;;;;9.05;2.78;;;21.10;76.70;;;;;;5039998;28;20482;-73
2023/06/03 07:48:20;;;;;;;6.18;2.90;;;21.10;77.70;;;;;;5067351;28;20107;-73
2023/06/03 07:50:47;;;;;;;6.10;2.55;;;21.20;75.80;;;;;;5050930;28;20032;-73
2023/06/03 07:53:18;;;;;;;6.18;2.75;;;21.30;75.50;;;;;;5050399;28;20021;-73
2023/06/03 07:55:44;;;;;;;10.02;3.15;;;21.30;75.70;;;;;;5045670;28;20104;-73
2023/06/03 07:58:11;;;;;;;5.57;2.40;;;21.40;75.20;;;;;;5038939;28;20028;-74
2023/06/03 08:00:48;;;;;;;2.65;2.10;;;21.40;74.00;;;;;;5054393;28;20074;-74
2023/06/03 08:03:18;;;;;;;8.02;2.22;;;21.40;74.90;;;;;;5068916;28;20457;-74
2023/06/03 08:05:47;;;;;;;4.70;1.92;;;21.50;73.80;;;;;;5049182;28;20439;-74
2023/06/03 08:08:14;;;;;;;6.10;2.97;;;21.50;73.90;;;;;;5048689;28;20030;-74
2023/06/03 08:10:44;;;;;;;4.07;2.20;;;21.60;72.80;;;;;;5048682;28;20483;-73
2023/06/03 08:13:12;;;;;;;6.88;2.47;;;21.60;72.80;;;;;;5062909;28;20031;-73
2023/06/03 08:15:38;;;;;;;4.68;2.40;;;21.60;72.30;;;;;;5048550;28;20017;-72
2023/06/03 08:18:05;;;;;;;4.90;1.92;;;21.70;71.80;;;;;;5052243;28;20036;-74
2023/06/03 08:20:33;;;;;;;5.00;1.92;;;21.70;71.70;;;;;;5042079;28;20071;-77
2023/06/03 08:22:59;;;;;;;3.60;1.50;;;21.70;70.10;;;;;;5045398;28;20129;-73
2023/06/03 08:25:25;;;;;;;4.82;1.73;;;21.80;69.60;;;;;;5047071;28;20033;-73
2023/06/03 08:27:52;;;;;;;3.30;1.30;;;21.80;69.90;;;;;;5056821;28;20021;-73
2023/06/03 08:30:20;;;;;;;6.57;1.70;;;21.90;69.40;;;;;;5041226;28;20044;-74
2023/06/03 08:32:46;;;;;;;7.57;1.75;;;21.90;68.60;;;;;;5053578;28;20047;-74
2023/06/03 08:35:14;;;;;;;8.32;1.88;;;21.90;69.00;;;;;;5048190;28;20056;-72
2023/06/03 08:37:40;;;;;;;4.75;1.58;;;21.90;68.90;;;;;;5064180;28;20021;-76
2023/06/03 08:40:08;;;;;;;4.70;1.90;;;21.80;69.00;;;;;;5053009;28;20068;-71
2023/06/03 08:42:46;;;;;;;3.80;1.80;;;21.90;69.20;;;;;;5062297;28;20032;-73
2023/06/03 08:45:16;;;;;;;5.50;1.98;;;22.00;67.70;;;;;;5052789;28;20036;-73
2023/06/03 08:48:00;;;;;;;6.93;1.70;;;22.00;67.80;;;;;;5044791;28;20025;-75
2023/06/03 08:50:27;;;;;;;3.30;1.60;;;22.00;68.80;;;;;;5044137;28;20167;-73
2023/06/03 08:52:54;;;;;;;5.15;2.28;;;22.00;68.50;;;;;;5050125;28;20021;-75
2023/06/03 08:55:21;;;;;;;3.25;1.42;;;22.00;68.60;;;;;;5054438;28;20646;-77
2023/06/03 08:58:08;;;;;;;4.00;1.52;;;22.10;67.70;;;;;;5051413;28;20012;-72
2023/06/03 09:00:34;;;;;;;4.95;1.80;;;22.20;67.60;;;;;;5048623;28;20069;-71
2023/06/03 09:03:03;;;;;;;3.42;1.60;;;22.10;66.90;;;;;;5044998;28;20098;-72
2023/06/03 09:05:32;;;;;;;5.28;1.58;;;22.20;66.30;;;;;;5045034;28;20022;-77
2023/06/03 09:07:58;;;;;;;6.50;1.80;;;22.20;65.90;;;;;;5048451;28;20024;-72
2023/06/03 09:10:26;;;;;;;6.68;1.70;;;22.10;65.20;;;;;;5044170;28;20033;-74
2023/06/03 09:12:56;;;;;;;9.68;1.67;;;22.20;65.10;;;;;;5038457;28;20029;-73
2023/06/03 09:15:22;;;;;;;4.55;1.45;;;22.20;65.10;;;;;;5041388;28;20029;-71
2023/06/03 09:17:48;;;;;;;5.00;1.38;;;22.10;65.70;;;;;;5039444;28;20028;-70
2023/06/03 09:20:14;;;;;;;5.50;1.70;;;22.10;65.30;;;;;;5037555;28;20033;-70
2023/06/03 09:22:43;;;;;;;3.55;1.38;;;22.10;65.10;;;;;;5041466;28;20402;-71
2023/06/03 09:25:09;;;;;;;5.65;1.33;;;22.10;65.20;;;;;;5056046;28;20029;-70
2023/06/03 09:27:36;;;;;;;6.15;1.63;;;22.10;65.30;;;;;;5049285;28;20041;-72
2023/06/03 09:30:03;;;;;;;4.95;1.40;;;22.10;64.90;;;;;;5040645;28;20063;-72
2023/06/03 09:32:34;;;;;;;5.72;1.42;;;22.10;65.10;;;;;;5042541;28;20056;-69
2023/06/03 09:35:10;;;;;;;8.25;2.03;;;22.10;66.40;;;;;;5047554;28;20536;-70
2023/06/03 09:37:35;;;;;;;6.60;2.10;;;22.10;65.90;;;;;;5054724;28;20071;-74
2023/06/03 09:40:08;;;;;;;3.47;1.50;;;22.10;66.10;;;;;;5053340;28;20040;-69
2023/06/03 09:42:44;;;;;;;5.18;1.60;;;22.10;65.60;;;;;;5042110;28;20454;-72
2023/06/03 09:45:29;;;;;;;8.27;1.83;;;22.10;66.10;;;;;;5053683;28;20032;-68
2023/06/03 09:47:59;;;;;;;5.40;1.48;;;22.10;67.20;;;;;;5065544;28;20017;-68
2023/06/03 09:50:27;;;;;;;3.90;1.75;;;22.10;66.50;;;;;;5050337;28;20029;-69
2023/06/03 09:52:53;;;;;;;8.15;1.67;;;22.10;64.10;;;;;;5048347;28;20112;-69
2023/06/03 09:55:19;;;;;;;6.72;1.70;;;22.10;66.20;;;;;;5061282;28;20116;-69
2023/06/03 09:58:05;;;;;;;8.52;1.98;;;22.10;64.10;;;;;;5054581;28;20017;-69
2023/06/03 10:00:44;;;;;;;2.58;1.70;;;22.10;64.80;;;;;;5052934;28;20051;-71
2023/06/03 10:03:09;;;;;;;3.15;1.55;;;22.10;63.90;;;;;;5038540;28;20085;-71
2023/06/03 10:05:36;;;;;;;4.13;1.48;;;22.00;64.40;;;;;;5052915;28;20025;-69
2023/06/03 10:08:03;;;;;;;2.67;1.17;;;22.10;64.10;;;;;;5068606;28;20064;-69
2023/06/03 10:10:30;;;;;;;5.88;0.90;;;22.10;67.40;;;;;;5058015;28;20025;-71
2023/06/03 10:12:56;;;;;;;5.13;1.20;;;22.10;63.70;;;;;;5054202;28;20534;-70
2023/06/03 10:15:36;;;;;;;4.47;1.33;;;22.10;63.20;;;;;;5050448;28;20512;-71
2023/06/03 10:18:06;;;;;;;4.10;1.15;;;22.10;63.70;;;;;;5055130;28;20024;-80
2023/06/03 10:20:32;;;;;;;3.35;1.30;;;22.10;62.30;;;;;;5045081;28;20021;-68
2023/06/03 10:23:00;;;;;;;3.22;1.13;;;22.10;62.40;;;;;;5045456;28;20032;-72
2023/06/03 10:25:30;;;;;;;3.13;1.17;;;22.00;62.80;;;;;;5051973;28;20021;-70
2023/06/03 10:27:56;;;;;;;6.90;1.30;;;22.10;63.20;;;;;;5049302;28;20033;-70
2023/06/03 10:30:25;;;;;;;3.42;1.23;;;22.00;61.20;;;;;;5060480;28;20028;-68
2023/06/03 10:32:52;;;;;;;8.25;1.67;;;22.00;62.00;;;;;;5049983;28;20060;-71
2023/06/03 10:35:20;;;;;;;2.35;1.00;;;22.00;61.80;;;;;;5044802;28;20025;-74
2023/06/03 10:37:48;;;;;;;5.43;1.55;;;22.00;61.00;;;;;;5047466;28;20037;-70
2023/06/03 10:40:14;;;;;;;3.55;1.05;;;22.00;65.40;;;;;;5054865;28;20052;-71
2023/06/03 10:42:40;;;;;;;3.85;0.90;;;22.10;61.40;;;;;;5063300;28;20410;-71
2023/06/03 10:45:07;;;;;;;4.95;1.02;;;22.00;62.80;;;;;;5056149;28;20063;-71
2023/06/03 10:47:34;;;;;;;4.10;0.80;;;22.00;61.70;;;;;;5059697;28;20025;-71
2023/06/03 10:50:49;;;;;;;4.00;1.20;;;22.10;61.90;;;;;;5067414;28;20032;-71
2023/06/03 10:53:32;;;;;;;4.38;0.95;;;22.10;62.20;;;;;;5050732;28;20147;-71
2023/06/03 10:56:23;;;;;;;4.30;1.10;;;22.10;62.10;;;;;;5047890;28;20026;-71
2023/06/03 10:59:01;;;;;;;3.10;1.25;;;22.10;61.30;;;;;;5038410;28;20033;-72
2023/06/03 11:01:58;;;;;;;3.55;1.23;;;22.10;60.10;;;;;;5064297;28;20033;-71
2023/06/03 11:04:26;;;;;;;6.75;1.40;;;22.10;62.10;;;;;;5051310;28;20504;-71
2023/06/03 11:06:53;;;;;;;2.88;1.27;;;22.10;61.30;;;;;;5033107;28;20209;-74
2023/06/03 11:09:36;;;;;;;5.70;1.35;;;22.10;60.90;;;;;;5044248;28;20032;-72
2023/06/03 11:12:05;;;;;;;7.15;1.17;;;22.10;59.90;;;;;;5041988;28;20037;-71
2023/06/03 11:14:38;;;;;;;5.53;1.02;;;22.10;60.70;;;;;;5050889;28;20090;-71
2023/06/03 11:17:03;;;;;;;2.70;1.25;;;22.10;60.30;;;;;;5051858;28;20544;-71
2023/06/03 11:19:37;;;;;;;2.63;1.08;;;22.20;59.60;;;;;;5049740;28;20060;-71
2023/06/03 11:22:08;;;;;;;3.30;1.08;;;22.10;59.40;;;;;;5052033;28;20036;-73
2023/06/03 11:24:40;;;;;;;1.83;1.02;;;22.10;60.10;;;;;;5049177;28;20033;-74
2023/06/03 11:27:18;;;;;;;6.88;1.15;;;22.10;59.40;;;;;;5052484;28;20029;-71
2023/06/03 11:29:46;;;;;;;4.38;1.20;;;22.10;58.30;;;;;;5051442;28;20389;-74
2023/06/03 11:32:25;;;;;;;3.55;0.98;;;22.10;59.10;;;;;;5047678;28;20026;-70
2023/06/03 11:35:11;;;;;;;2.17;0.70;;;22.00;58.90;;;;;;5046782;28;20025;-70
2023/06/03 11:37:49;;;;;;;3.72;1.38;;;22.10;59.40;;;;;;5046818;28;20021;-70
2023/06/03 11:40:18;;;;;;;2.70;0.90;;;22.10;57.60;;;;;;5049576;28;20123;-70
2023/06/03 11:42:47;;;;;;;3.85;0.73;;;22.10;58.00;;;;;;5041580;28;20028;-68
2023/06/03 11:45:18;;;;;;;1.73;0.80;;;22.00;56.40;;;;;;5043448;28;20026;-69
2023/06/03 11:47:54;;;;;;;3.83;1.00;;;22.00;57.50;;;;;;5067555;28;20039;-70
2023/06/03 11:50:24;;;;;;;3.80;1.15;;;22.10;58.40;;;;;;5053404;28;20025;-70
2023/06/03 11:52:50;;;;;;;3.25;1.13;;;22.10;58.10;;;;;;5048468;28;20028;-68
2023/06/03 11:55:34;;;;;;;2.58;1.00;;;22.10;57.10;;;;;;5063279;28;20025;-67
2023/06/03 11:58:10;;;;;;;1.60;0.88;;;22.10;57.90;;;;;;5058199;28;20517;-67
2023/06/03 12:00:37;;;;;;;2.97;0.80;;;22.20;58.30;;;;;;5047708;28;20356;-70
2023/06/03 12:03:03;;;;;;;2.72;1.08;;;22.20;58.20;;;;;;5059538;28;20517;-70
2023/06/03 12:05:28;;;;;;;4.25;0.77;;;22.20;59.40;;;;;;5060897;28;20485;-76
2023/06/03 12:08:01;;;;;;;5.80;1.10;;;22.20;58.50;;;;;;5051829;28;20037;-70
2023/06/03 12:10:27;;;;;;;3.90;0.73;;;22.30;56.40;;;;;;5054187;28;20032;-74
2023/06/03 12:12:57;;;;;;;4.40;1.00;;;22.30;56.40;;;;;;5049888;28;20071;-70
2023/06/03 12:15:24;;;;;;;7.15;1.17;;;22.30;56.70;;;;;;5044681;28;20052;-74
2023/06/03 12:17:50;;;;;;;5.15;1.00;;;22.30;57.10;;;;;;5062274;28;20633;-79
2023/06/03 12:20:24;;;;;;;6.15;1.20;;;22.30;58.10;;;;;;5052168;28;20107;-73
2023/06/03 12:22:57;;;;;;;5.90;1.17;;;22.40;58.10;;;;;;5044887;28;20037;-71
2023/06/03 12:25:23;;;;;;;2.53;0.88;;;22.30;56.90;;;;;;5046930;28;20025;-77
2023/06/03 12:27:49;;;;;;;3.28;1.05;;;22.30;56.90;;;;;;5055764;28;20033;-75
2023/06/03 12:30:31;;;;;;;2.55;0.90;;;22.30;55.90;;;;;;5056108;28;20943;-73
2023/06/03 12:32:57;;;;;;;2.10;0.68;;;22.30;56.70;;;;;;5049033;28;20025;-69
2023/06/03 12:35:26;;;;;;;3.53;1.08;;;22.30;57.40;;;;;;5049532;28;20024;-70
2023/06/03 12:38:09;;;;;;;3.40;1.00;;;22.30;57.10;;;;;;5046864;28;20460;-69
2023/06/03 12:40:35;;;;;;;4.32;1.05;;;22.30;57.70;;;;;;5044966;28;20578;-70
2023/06/03 12:43:02;;;;;;;9.90;1.20;;;22.30;56.60;;;;;;5061789;28;20048;-68
2023/06/03 12:45:28;;;;;;;2.25;0.82;;;22.40;57.10;;;;;;5042415;28;21009;-70
2023/06/03 12:47:55;;;;;;;2.50;0.82;;;22.40;56.80;;;;;;5052168;28;20039;-69
2023/06/03 12:50:23;;;;;;;4.03;0.68;;;22.40;55.80;;;;;;5036105;28;20474;-73
2023/06/03 12:52:49;;;;;;;4.60;0.85;;;22.40;55.40;;;;;;5039362;28;20040;-79